aviador You're here:

LFML Decoded Metar

MARSEILLE in FRANCE
Report Time2018-02-20 03:00:00
UTC Time2018-02-20 03:19:46
Flight Rules vfr VFR
Wind330° at 15 kt
W.Decomp.*RWY 31: 14.2 kt HW 4.9 kt RCW
W.Rank330° ranks 3
Current wind is above 330° avg. (14.9)
Visibility9999 m
Phenomena:N/A
Clouds:N/A
Expected CloudBase > 3,200 ft AGL from Temp-Dew spread
CeilingNone
Temp05°C (ISA -10)
Dew Point-3°C (57% RH)
AAT-2.8°C
QNH1010 hPa
Density Alt-892 ft
Elevation118 ft
Report Wrong Elevation
Raw Report
LFML 200300Z AUTO 33015KT CAVOK 05/M03 Q1010 NOSIG=

Extra information for LFML:More info

Metar Taf Metar & Taf Last 4 Metars F.Rules Stats Wind Profile Meteogram Temp Stats Airport Information Weather charts Add Link Nearby VenuesMetar ALERT Operation Metar Decoded Social comments